Time;durP1;ratioP1;P1;durP2;ratioP2;P2;SDS_P1;SDS_P2;PMS_P1;PMS_P2;Temp;Humidity;BMP_temperature;BMP_pressure;BME280_temperature;BME280_humidity;BME280_pressure;Samples;Min_cycle;Max_cycle;Signal;HPM_P1;HPM_P2
2021/04/09 00:00:27;;;;;;;8.63;5.30;;;;;;;-0.23;81.16;96563.44;1786212;80;21320;-70
2021/04/09 00:02:57;;;;;;;7.20;5.20;;;;;;;-0.27;81.51;96564.17;1786299;80;21108;-69
2021/04/09 00:05:26;;;;;;;6.93;5.10;;;;;;;-0.30;82.03;96566.23;1786578;80;21146;-70
2021/04/09 00:07:56;;;;;;;6.97;4.97;;;;;;;-0.29;81.89;96571.87;1786366;80;21313;-70
2021/04/09 00:10:26;;;;;;;6.63;4.90;;;;;;;-0.24;81.52;96575.95;1786203;80;21155;-70
2021/04/09 00:12:56;;;;;;;7.33;5.27;;;;;;;-0.22;81.39;96579.08;1786621;80;21269;-70
2021/04/09 00:15:25;;;;;;;6.30;4.40;;;;;;;-0.19;81.16;96582.20;1786164;80;21289;-70
2021/04/09 00:17:53;;;;;;;6.10;4.80;;;;;;;-0.23;81.03;96578.62;1786173;80;21123;-69
2021/04/09 00:20:24;;;;;;;6.43;4.30;;;;;;;-0.19;81.12;96586.09;1786223;80;21151;-70
2021/04/09 00:22:53;;;;;;;5.70;3.43;;;;;;;-0.25;81.70;96582.85;1786158;80;21316;-70
2021/04/09 00:25:22;;;;;;;6.57;5.10;;;;;;;-0.32;82.49;96584.73;1786234;80;21150;-70
2021/04/09 00:27:50;;;;;;;7.73;5.10;;;;;;;-0.30;81.63;96580.50;1786511;80;21289;-70
2021/04/09 00:30:26;;;;;;;6.03;4.33;;;;;;;-0.24;81.32;96582.44;1786101;80;21127;-70
2021/04/09 00:32:54;;;;;;;9.97;6.37;;;;;;;-0.25;81.44;96580.68;1786723;80;21133;-70
2021/04/09 00:35:22;;;;;;;11.13;6.93;;;;;;;-0.25;82.32;96586.74;1786236;80;21293;-70
2021/04/09 00:37:52;;;;;;;12.67;8.67;;;;;;;-0.21;82.33;96592.92;1786356;80;21155;-70
2021/04/09 00:40:21;;;;;;;12.47;7.90;;;;;;;-0.17;81.84;96592.23;1786478;80;21273;-70
2021/04/09 00:42:49;;;;;;;10.23;7.37;;;;;;;-0.21;81.94;96590.33;1786017;80;21150;-70
2021/04/09 00:45:18;;;;;;;10.67;6.87;;;;;;;-0.26;81.96;96590.14;1786489;80;21284;-70
2021/04/09 00:47:46;;;;;;;12.63;7.90;;;;;;;-0.28;82.23;96596.09;1786470;80;21167;-70
2021/04/09 00:50:15;;;;;;;13.10;7.47;;;;;;;-0.28;82.14;96591.82;1786253;80;21703;-70
2021/04/09 00:52:45;;;;;;;12.53;7.70;;;;;;;-0.26;81.97;96600.52;1786179;80;21099;-69
2021/04/09 00:55:14;;;;;;;10.20;7.27;;;;;;;-0.22;81.92;96601.54;1786144;80;21577;-70
2021/04/09 00:57:43;;;;;;;11.93;7.97;;;;;;;-0.20;81.87;96603.78;1786293;80;21317;-70
2021/04/09 01:00:13;;;;;;;10.23;7.40;;;;;;;-0.18;81.69;96602.53;1786058;80;21592;-70
2021/04/09 01:02:42;;;;;;;10.53;6.10;;;;;;;-0.13;81.78;96603.59;1786234;80;21151;-69
2021/04/09 01:05:14;;;;;;;9.43;6.77;;;;;;;-0.13;81.75;96603.17;1785880;80;21573;-70
2021/04/09 01:07:44;;;;;;;10.13;5.97;;;;;;;-0.05;81.52;96612.55;1786400;80;21699;-70
2021/04/09 01:10:14;;;;;;;10.80;6.57;;;;;;;-0.05;81.36;96613.45;1786144;80;21123;-70
2021/04/09 01:12:43;;;;;;;16.60;9.87;;;;;;;-0.05;81.35;96610.86;1758548;80;21134;-70
2021/04/09 01:15:13;;;;;;;17.27;10.87;;;;;;;-0.02;81.46;96617.46;1786131;80;21645;-70
2021/04/09 01:17:52;;;;;;;17.73;10.60;;;;;;;-0.05;81.42;96616.44;1786219;80;21289;-70
2021/04/09 01:20:46;;;;;;;15.97;8.73;;;;;;;-0.08;81.43;96619.80;1785983;80;21135;-69
2021/04/09 01:23:25;;;;;;;17.98;11.12;;;;;;;-0.15;81.75;96628.58;1786255;80;21159;-69
2021/04/09 01:26:07;;;;;;;20.07;11.33;;;;;;;-0.26;82.28;96633.35;1786004;80;21130;-70
2021/04/09 01:28:58;;;;;;;18.10;10.43;;;;;;;-0.29;81.83;96636.71;1786113;80;21136;-69
2021/04/09 01:31:47;;;;;;;16.60;9.40;;;;;;;-0.31;82.15;96637.05;1785864;80;21147;-70
2021/04/09 01:34:17;;;;;;;9.83;7.30;;;;;;;-0.32;81.89;96637.02;1786163;80;21108;-69
2021/04/09 01:36:54;;;;;;;10.50;6.70;;;;;;;-0.37;82.20;96637.24;1786434;80;21664;-70
2021/04/09 01:39:33;;;;;;;8.43;5.67;;;;;;;-0.42;82.60;96645.25;1785286;80;21617;-69
2021/04/09 01:42:04;;;;;;;8.70;6.17;;;;;;;-0.45;82.15;96644.72;1786363;80;21561;-70
2021/04/09 01:44:35;;;;;;;13.43;7.27;;;;;;;-0.47;82.38;96645.06;1786158;80;21112;-70
2021/04/09 01:47:05;;;;;;;11.30;7.53;;;;;;;-0.52;82.99;96642.27;1757938;80;21154;-69
2021/04/09 01:49:35;;;;;;;9.03;6.27;;;;;;;-0.52;82.65;96643.98;1786159;80;21152;-70
2021/04/09 01:52:05;;;;;;;7.97;5.77;;;;;;;-0.51;82.64;96641.85;1786215;80;21518;-70
2021/04/09 01:54:35;;;;;;;8.43;5.80;;;;;;;-0.53;82.13;96644.41;1786277;80;21537;-69
2021/04/09 01:57:05;;;;;;;7.97;5.83;;;;;;;-0.48;82.17;96648.45;1786218;80;21151;-69
2021/04/09 01:59:37;;;;;;;8.30;5.23;;;;;;;-0.44;81.95;96644.75;1786239;80;21324;-70
2021/04/09 02:02:06;;;;;;;8.43;5.07;;;;;;;-0.40;81.60;96647.08;1786231;80;21126;-70
2021/04/09 02:04:37;;;;;;;8.50;5.43;;;;;;;-0.41;81.44;96651.77;1786397;80;21304;-69
2021/04/09 02:07:08;;;;;;;9.23;6.10;;;;;;;-0.39;81.40;96652.73;1758341;80;21134;-70
2021/04/09 02:09:37;;;;;;;9.30;6.50;;;;;;;-0.40;81.51;96656.54;1786268;80;21581;-69
2021/04/09 02:12:07;;;;;;;6.90;5.23;;;;;;;-0.40;81.37;96662.64;1757695;80;21115;-69
2021/04/09 02:14:36;;;;;;;7.77;5.43;;;;;;;-0.35;81.39;96658.52;1786093;80;21147;-70
2021/04/09 02:17:05;;;;;;;11.77;7.10;;;;;;;-0.46;82.20;96661.95;1786026;80;21135;-70
2021/04/09 02:19:34;;;;;;;10.83;7.37;;;;;;;-0.47;82.59;96658.90;1786165;80;21577;-70
2021/04/09 02:22:02;;;;;;;10.50;6.53;;;;;;;-0.49;82.66;96659.66;1780427;80;21727;-70
2021/04/09 02:24:29;;;;;;;7.93;5.47;;;;;;;-0.47;82.29;96665.80;1765790;81;21583;-70
2021/04/09 02:26:58;;;;;;;11.37;7.07;;;;;;;-0.47;82.57;96669.69;1765551;81;21589;-70
2021/04/09 02:29:26;;;;;;;10.93;7.03;;;;;;;-0.51;83.32;96664.77;1765610;81;21627;-69
2021/04/09 02:31:54;;;;;;;10.77;6.93;;;;;;;-0.43;82.93;96667.67;1765625;81;21166;-70
2021/04/09 02:34:22;;;;;;;10.67;7.03;;;;;;;-0.33;82.68;96664.66;1765812;81;21178;-70
2021/04/09 02:36:51;;;;;;;9.17;6.40;;;;;;;-0.32;82.55;96662.53;1765840;81;21166;-69
2021/04/09 02:39:25;;;;;;;7.03;5.40;;;;;;;-0.29;81.96;96660.47;1765756;81;21549;-70
2021/04/09 02:41:57;;;;;;;7.57;5.00;;;;;;;-0.20;81.76;96670.31;1765910;81;21134;-70
2021/04/09 02:44:25;;;;;;;6.93;4.97;;;;;;;-0.25;81.65;96670.16;1765632;81;21150;-70
2021/04/09 02:47:06;;;;;;;9.63;6.37;;;;;;;-0.38;81.91;96660.97;1737937;81;21150;-69
2021/04/09 02:49:41;;;;;;;11.30;7.83;;;;;;;-0.44;81.61;96664.62;1765702;81;21565;-69
2021/04/09 02:52:16;;;;;;;6.83;4.53;;;;;;;-0.44;82.09;96659.02;1765634;81;21135;-70
2021/04/09 02:54:50;;;;;;;11.10;5.97;;;;;;;-0.50;82.24;96660.50;1765722;81;21171;-69
2021/04/09 02:57:23;;;;;;;9.33;5.20;;;;;;;-0.49;82.13;96659.24;1765856;81;21138;-69
2021/04/09 02:59:53;;;;;;;7.20;4.92;;;;;;;-0.57;82.13;96663.23;1765802;81;21138;-69
2021/04/09 03:02:23;;;;;;;7.83;4.77;;;;;;;-0.60;82.00;96671.31;1738256;81;21130;-69
2021/04/09 03:04:52;;;;;;;6.10;4.70;;;;;;;-0.71;81.56;96662.64;1738396;81;21174;-69
2021/04/09 03:07:21;;;;;;;5.43;4.00;;;;;;;-0.88;81.35;96663.25;1766027;81;21146;-69
2021/04/09 03:09:48;;;;;;;6.00;4.00;;;;;;;-0.95;81.16;96658.62;1738262;81;21166;-70
2021/04/09 03:12:19;;;;;;;4.60;3.57;;;;;;;-1.09;81.04;96670.09;1765924;81;21577;-70
2021/04/09 03:14:51;;;;;;;3.93;3.07;;;;;;;-1.27;81.31;96678.36;1765758;81;21155;-70
2021/04/09 03:17:38;;;;;;;4.73;3.53;;;;;;;-1.36;81.25;96678.43;1765889;81;21166;-70
2021/04/09 03:20:09;;;;;;;6.03;3.50;;;;;;;-1.40;81.46;96676.92;1766077;81;21509;-70
2021/04/09 03:22:37;;;;;;;7.40;3.70;;;;;;;-1.40;81.36;96678.22;1765909;80;21177;-69
2021/04/09 03:25:07;;;;;;;4.60;3.17;;;;;;;-1.47;81.06;96692.58;1765706;81;21607;-70
2021/04/09 03:27:35;;;;;;;5.43;3.97;;;;;;;-1.53;81.07;96688.44;1765797;81;21576;-69
2021/04/09 03:30:05;;;;;;;7.80;4.30;;;;;;;-1.52;81.19;96685.89;1765909;81;21147;-70
2021/04/09 03:32:32;;;;;;;6.17;3.77;;;;;;;-1.57;81.13;96689.09;1765545;81;21142;-70
2021/04/09 03:35:00;;;;;;;5.67;4.43;;;;;;;-1.58;81.03;96693.81;1738124;81;21162;-69
2021/04/09 03:37:29;;;;;;;6.67;3.40;;;;;;;-1.61;81.06;96694.55;1765906;81;21154;-69
2021/04/09 03:39:56;;;;;;;4.77;3.47;;;;;;;-1.58;80.98;96696.40;1765949;81;21154;-70
2021/04/09 03:42:24;;;;;;;4.57;3.50;;;;;;;-1.72;80.29;96695.75;1765709;81;21146;-69
2021/04/09 03:44:52;;;;;;;5.37;3.37;;;;;;;-1.94;80.10;96704.61;1765573;81;21588;-70
2021/04/09 03:47:20;;;;;;;5.27;3.37;;;;;;;-2.10;80.30;96708.18;1738039;81;21161;-69
2021/04/09 03:49:48;;;;;;;4.90;3.30;;;;;;;-2.25;80.51;96707.91;1765906;81;21146;-70
2021/04/09 03:52:16;;;;;;;4.93;3.33;;;;;;;-2.25;80.70;96703.16;1765727;81;21153;-70
2021/04/09 03:54:44;;;;;;;5.67;3.23;;;;;;;-2.29;80.79;96706.02;1766085;81;21273;-70
2021/04/09 03:57:12;;;;;;;7.07;4.73;;;;;;;-2.29;81.15;96712.48;1765699;81;21170;-69
2021/04/09 03:59:39;;;;;;;6.07;4.30;;;;;;;-2.37;81.00;96708.61;1765576;81;21123;-70
2021/04/09 04:02:08;;;;;;;5.60;3.80;;;;;;;-2.33;80.87;96704.08;1765824;81;21157;-69
2021/04/09 04:04:35;;;;;;;6.93;3.57;;;;;;;-2.35;80.80;96709.98;1765718;81;21119;-69
2021/04/09 04:07:04;;;;;;;5.43;3.57;;;;;;;-2.31;80.79;96719.67;1765575;81;21174;-70
2021/04/09 04:09:31;;;;;;;4.70;3.50;;;;;;;-2.27;80.57;96723.78;1766003;81;21249;-70
2021/04/09 04:11:59;;;;;;;4.37;3.17;;;;;;;-2.40;80.52;96721.38;1766083;81;21114;-70
2021/04/09 04:14:27;;;;;;;5.47;3.23;;;;;;;-2.45;80.44;96724.16;1765530;81;21150;-70
2021/04/09 04:16:55;;;;;;;3.70;2.80;;;;;;;-2.51;80.29;96720.86;1765860;81;21592;-70
2021/04/09 04:19:24;;;;;;;4.73;2.83;;;;;;;-2.53;80.29;96730.23;1765839;81;21607;-70
2021/04/09 04:21:52;;;;;;;4.27;2.60;;;;;;;-2.52;80.52;96740.16;1765702;80;21131;-70
2021/04/09 04:24:20;;;;;;;5.47;2.90;;;;;;;-2.52;80.36;96729.44;1765723;81;21179;-70
2021/04/09 04:26:48;;;;;;;4.40;2.70;;;;;;;-2.52;80.33;96734.98;1765540;81;21142;-71
2021/04/09 04:29:15;;;;;;;4.30;2.53;;;;;;;-2.46;80.33;96738.78;1765719;81;21167;-69
2021/04/09 04:31:44;;;;;;;4.63;2.77;;;;;;;-2.47;80.19;96739.60;1765824;81;21150;-69
2021/04/09 04:34:11;;;;;;;13.57;6.07;;;;;;;-2.49;80.04;96741.22;1765502;81;21147;-70
2021/04/09 04:36:40;;;;;;;21.07;10.43;;;;;;;-2.56;79.94;96751.17;1765226;81;21584;-70
2021/04/09 04:39:08;;;;;;;26.20;16.00;;;;;;;-2.54;81.15;96749.55;1765656;81;21174;-69
2021/04/09 04:41:35;;;;;;;31.47;16.60;;;;;;;-2.42;81.13;96755.31;1765793;81;21572;-70
2021/04/09 04:44:03;;;;;;;32.60;12.67;;;;;;;-2.42;81.19;96756.22;1765805;81;21142;-69
2021/04/09 04:46:31;;;;;;;29.07;13.80;;;;;;;-2.45;80.79;96762.91;1765581;81;21146;-70
2021/04/09 04:48:59;;;;;;;34.67;17.33;;;;;;;-2.44;80.71;96759.13;1765758;81;21119;-69
2021/04/09 04:51:27;;;;;;;46.20;25.00;;;;;;;-2.28;81.34;96754.72;1765848;81;21581;-70
2021/04/09 04:53:55;;;;;;;49.57;27.30;;;;;;;-2.09;81.08;96761.28;1766071;81;21253;-69
2021/04/09 04:56:24;;;;;;;52.20;29.23;;;;;;;-2.01;80.32;96764.23;1765503;81;21151;-69
2021/04/09 04:58:52;;;;;;;69.50;36.90;;;;;;;-1.96;79.89;96762.34;1738413;81;21174;-69
2021/04/09 05:01:19;;;;;;;56.77;30.43;;;;;;;-1.89;79.73;96762.24;1765859;81;21142;-70
2021/04/09 05:03:47;;;;;;;37.63;22.57;;;;;;;-1.85;79.66;96769.73;1765613;81;21619;-69
2021/04/09 05:06:15;;;;;;;47.43;24.93;;;;;;;-1.86;80.52;96767.55;1765977;81;21155;-69
2021/04/09 05:08:43;;;;;;;21.33;13.00;;;;;;;-1.87;80.76;96774.81;1765679;81;21154;-70
2021/04/09 05:11:11;;;;;;;26.33;14.40;;;;;;;-1.85;80.95;96773.61;1765821;81;21165;-69
2021/04/09 05:13:38;;;;;;;27.60;15.40;;;;;;;-1.91;81.11;96774.20;1765693;81;21167;-69
2021/04/09 05:16:06;;;;;;;35.23;18.90;;;;;;;-1.76;80.85;96771.47;1765456;81;21179;-70
2021/04/09 05:18:34;;;;;;;37.17;18.70;;;;;;;-1.61;81.10;96768.72;1765500;81;21162;-70
2021/04/09 05:21:04;;;;;;;45.00;24.27;;;;;;;-1.52;80.93;96776.48;1765614;81;21146;-69
2021/04/09 05:23:31;;;;;;;39.47;22.40;;;;;;;-1.45;80.65;96773.78;1733520;82;21182;-69
2021/04/09 05:25:59;;;;;;;34.30;19.07;;;;;;;-1.38;80.45;96769.79;1758117;82;21583;-69
2021/04/09 05:28:27;;;;;;;34.70;20.03;;;;;;;-1.27;80.07;96768.98;1757848;82;21145;-69
2021/04/09 05:30:55;;;;;;;31.80;16.87;;;;;;;-1.21;79.98;96777.02;1757740;82;21174;-69
2021/04/09 05:33:25;;;;;;;32.73;19.60;;;;;;;-1.08;79.51;96779.36;1757766;82;21127;-69
2021/04/09 05:35:52;;;;;;;34.13;18.97;;;;;;;-0.90;79.45;96771.11;1757796;82;21135;-69
2021/04/09 05:38:21;;;;;;;30.40;17.10;;;;;;;-0.83;79.06;96777.84;1757655;81;21186;-69
2021/04/09 05:40:49;;;;;;;26.63;14.50;;;;;;;-0.83;79.12;96777.84;1757822;82;21119;-69
2021/04/09 05:43:16;;;;;;;23.63;11.63;;;;;;;-0.80;79.37;96771.53;1757819;82;21158;-69
2021/04/09 05:45:44;;;;;;;20.40;11.80;;;;;;;-0.72;80.06;96776.21;1758014;82;21135;-69
2021/04/09 05:48:12;;;;;;;20.13;13.30;;;;;;;-0.61;79.40;96777.09;1758015;82;21165;-69
2021/04/09 05:50:41;;;;;;;23.17;13.77;;;;;;;-0.48;79.19;96780.30;1757937;82;21598;-69
2021/04/09 05:53:08;;;;;;;28.03;14.63;;;;;;;-0.31;79.04;96774.50;1757710;82;21111;-69
2021/04/09 05:55:36;;;;;;;21.63;13.63;;;;;;;-0.16;78.11;96777.27;1757882;82;21596;-69
2021/04/09 05:58:03;;;;;;;22.43;12.83;;;;;;;-0.09;77.94;96777.59;1757718;82;21166;-71
2021/04/09 06:00:31;;;;;;;19.67;11.60;;;;;;;-0.04;77.87;96770.00;1757776;82;21651;-69
2021/04/09 06:02:59;;;;;;;22.53;11.53;;;;;;;-0.03;77.77;96767.87;1758051;82;21135;-70
2021/04/09 06:05:27;;;;;;;18.77;10.30;;;;;;;0.10;77.48;96764.06;1757768;82;21158;-70
2021/04/09 06:07:55;;;;;;;16.53;10.80;;;;;;;0.24;77.20;96762.91;1757826;82;21163;-69
2021/04/09 06:10:24;;;;;;;17.17;10.97;;;;;;;0.35;76.88;96764.63;1757896;82;21596;-69
2021/04/09 06:12:52;;;;;;;18.73;10.90;;;;;;;0.45;77.07;96762.87;1757917;82;21170;-69
2021/04/09 06:15:21;;;;;;;18.77;10.80;;;;;;;0.65;77.03;96770.13;1757853;81;21127;-69
2021/04/09 06:17:48;;;;;;;13.80;9.70;;;;;;;0.81;76.32;96769.03;1757740;82;21163;-70
2021/04/09 06:20:18;;;;;;;12.07;8.07;;;;;;;0.96;76.07;96760.89;1757849;82;21155;-69
2021/04/09 06:22:46;;;;;;;9.43;6.37;;;;;;;1.13;75.39;96762.41;1760322;80;21154;-70
2021/04/09 06:25:17;;;;;;;10.03;7.37;;;;;;;1.16;73.46;96761.63;1819304;79;21122;-69
2021/04/09 06:27:45;;;;;;;10.93;7.03;;;;;;;1.27;73.53;96765.09;1819400;79;21127;-69
2021/04/09 06:30:14;;;;;;;18.87;9.23;;;;;;;1.42;73.57;96765.19;1819379;78;21150;-69
2021/04/09 06:32:42;;;;;;;10.03;7.10;;;;;;;1.47;72.83;96768.41;1818998;78;21099;-70
2021/04/09 06:35:11;;;;;;;10.67;5.90;;;;;;;1.56;72.30;96763.93;1819350;78;21157;-70
2021/04/09 06:37:41;;;;;;;11.60;6.77;;;;;;;1.66;72.39;96763.45;1819466;79;21147;-70
2021/04/09 06:40:11;;;;;;;7.83;5.10;;;;;;;1.85;72.52;96765.38;1819105;79;21581;-70
2021/04/09 06:42:38;;;;;;;8.33;5.70;;;;;;;1.94;71.50;96768.26;1787987;79;21576;-70
2021/04/09 06:45:09;;;;;;;7.37;5.40;;;;;;;1.87;70.29;96768.91;1819200;79;21158;-70
2021/04/09 06:47:37;;;;;;;8.43;5.67;;;;;;;2.00;71.20;96776.30;1819356;78;21127;-70
2021/04/09 06:50:07;;;;;;;27.83;15.97;;;;;;;1.92;71.27;96771.25;1819343;79;21580;-70
2021/04/09 06:52:35;;;;;;;264.87;85.80;;;;;;;2.01;71.71;96773.27;1819358;79;21131;-70
2021/04/09 06:55:05;;;;;;;17.80;9.80;;;;;;;2.18;72.15;96774.71;1819276;79;21138;-70
2021/04/09 06:57:34;;;;;;;9.13;6.33;;;;;;;2.29;71.12;96778.95;1819259;79;21131;-70
2021/04/09 07:00:07;;;;;;;7.83;4.70;;;;;;;2.30;70.73;96778.14;1819422;79;21162;-70
2021/04/09 07:02:36;;;;;;;7.95;5.40;;;;;;;2.40;70.94;96783.23;1819200;79;21123;-69
2021/04/09 07:05:06;;;;;;;9.57;6.03;;;;;;;2.51;70.91;96777.93;1819238;78;21133;-70
2021/04/09 07:07:34;;;;;;;10.73;6.43;;;;;;;2.67;71.02;96773.68;1819427;79;21134;-70
2021/04/09 07:10:03;;;;;;;9.97;4.70;;;;;;;2.83;70.02;96779.36;1819055;79;21143;-70
2021/04/09 07:12:34;;;;;;;8.70;5.37;;;;;;;2.81;68.15;96776.27;1819460;78;21581;-70
2021/04/09 07:15:08;;;;;;;10.70;6.70;;;;;;;2.83;68.45;96778.94;1819354;78;21131;-70
2021/04/09 07:17:40;;;;;;;12.07;7.17;;;;;;;3.01;69.23;96772.08;1742501;82;21169;-70
2021/04/09 07:20:24;;;;;;;7.83;5.57;;;;;;;3.18;68.89;96780.41;1769280;81;21113;-70
2021/04/09 07:22:54;;;;;;;;;;;;;;;3.25;67.77;96770.58;1772490;81;21109;-70
2021/04/09 07:25:29;;;;;;;9.30;5.73;;;;;;;3.36;66.58;96773.52;1769616;81;20574;-70
2021/04/09 07:28:24;;;;;;;7.80;5.50;;;;;;;3.50;68.60;96769.97;1770198;81;21149;-70
2021/04/09 07:30:57;;;;;;;7.40;5.33;;;;;;;3.62;65.35;96772.50;1770072;81;21590;-70
2021/04/09 07:33:27;;;;;;;10.03;7.30;;;;;;;3.71;65.35;96777.53;1770301;81;21152;-70
2021/04/09 07:36:07;;;;;;;10.03;5.50;;;;;;;3.83;66.92;96772.21;1770300;81;21554;-70
2021/04/09 07:38:36;;;;;;;8.97;6.37;;;;;;;3.91;63.93;96776.33;1769578;81;21144;-70
2021/04/09 07:41:08;;;;;;;7.80;3.53;;;;;;;3.98;62.97;96773.43;1770284;81;21161;-70
2021/04/09 07:43:41;;;;;;;21.10;12.63;;;;;;;4.00;58.18;96779.16;1770331;81;21283;-70
2021/04/09 07:46:22;;;;;;;5.95;3.90;;;;;;;4.10;60.65;96777.67;1770296;81;21144;-70
2021/04/09 07:49:03;;;;;;;4.67;3.03;;;;;;;4.20;58.18;96783.58;1769880;81;21619;-70
2021/04/09 07:51:31;;;;;;;6.53;3.80;;;;;;;4.28;56.62;96780.77;1770064;81;21144;-70
2021/04/09 07:54:12;;;;;;;7.97;4.37;;;;;;;4.41;59.44;96780.64;1770003;81;21144;-70
2021/04/09 07:56:46;;;;;;;10.23;5.10;;;;;;;4.56;58.42;96786.63;1767646;81;21168;-70
2021/04/09 07:59:13;;;;;;;7.55;5.22;;;;;;;4.57;58.07;96783.19;1770118;81;21129;-70
2021/04/09 08:01:47;;;;;;;7.60;4.97;;;;;;;4.71;56.87;96785.71;1770274;81;21156;-70
2021/04/09 08:04:16;;;;;;;7.33;4.57;;;;;;;4.75;57.25;96782.73;1770082;81;21128;-70
2021/04/09 08:06:43;;;;;;;4.60;3.30;;;;;;;4.82;57.63;96781.15;1769996;81;21159;-70
2021/04/09 08:09:11;;;;;;;6.67;3.73;;;;;;;4.91;55.00;96778.72;1770342;81;21152;-70
2021/04/09 08:11:39;;;;;;;4.57;3.23;;;;;;;4.98;53.46;96776.27;1769897;81;21889;-70
2021/04/09 08:14:12;;;;;;;4.00;3.03;;;;;;;5.12;54.01;96779.64;1770134;81;21164;-70
2021/04/09 08:16:45;;;;;;;5.62;3.00;;;;;;;5.25;55.20;96776.42;1770370;81;21145;-70
2021/04/09 08:19:23;;;;;;;5.03;3.13;;;;;;;5.47;54.13;96776.84;1740303;81;21173;-70
2021/04/09 08:21:57;;;;;;;4.67;3.30;;;;;;;5.53;51.57;96780.48;1770261;81;21109;-70
2021/04/09 08:24:31;;;;;;;4.63;3.70;;;;;;;5.69;54.47;96782.09;1769902;81;21180;-70
2021/04/09 08:27:00;;;;;;;4.83;4.10;;;;;;;5.88;54.17;96784.65;1780485;80;21660;-70
2021/04/09 08:29:30;;;;;;;7.03;3.33;;;;;;;5.94;51.99;96780.42;1780600;80;21111;-70
2021/04/09 08:32:02;;;;;;;5.80;3.80;;;;;;;5.95;52.68;96780.02;1819367;79;21134;-70
2021/04/09 08:34:29;;;;;;;6.30;3.80;;;;;;;5.90;49.92;96781.20;1819261;79;21116;-70
2021/04/09 08:36:58;;;;;;;4.93;3.90;;;;;;;5.95;52.21;96779.59;1819590;79;21147;-70
2021/04/09 08:39:29;;;;;;;5.20;3.90;;;;;;;6.10;51.41;96777.67;1815630;79;21605;-70
2021/04/09 08:41:57;;;;;;;4.40;3.40;;;;;;;6.14;48.16;96782.09;1819195;78;21138;-70
2021/04/09 08:44:26;;;;;;;6.17;4.30;;;;;;;6.16;50.23;96779.08;1819503;78;21103;-70
2021/04/09 08:46:54;;;;;;;4.97;3.70;;;;;;;6.25;47.79;96782.30;1819217;79;21138;-70
2021/04/09 08:49:23;;;;;;;5.20;3.33;;;;;;;6.34;49.82;96779.81;1819147;78;21612;-70
2021/04/09 08:51:52;;;;;;;5.63;3.80;;;;;;;6.37;48.49;96772.44;1819162;78;21165;-70
2021/04/09 08:54:28;;;;;;;4.90;3.70;;;;;;;6.49;47.27;96778.75;1819243;79;21142;-70
2021/04/09 08:56:54;;;;;;;5.33;3.85;;;;;;;6.55;48.83;96776.69;1818983;79;21131;-70
2021/04/09 08:59:45;;;;;;;4.00;3.40;;;;;;;6.66;45.59;96778.16;1787546;79;21165;-70
2021/04/09 09:02:24;;;;;;;3.40;2.73;;;;;;;6.69;45.09;96779.52;1819405;78;21146;-70
2021/04/09 09:05:06;;;;;;;6.43;3.57;;;;;;;6.80;44.92;96775.30;1787730;79;21116;-70
2021/04/09 09:07:52;;;;;;;5.03;3.23;;;;;;;6.96;45.82;96769.87;1819008;79;21123;-70
2021/04/09 09:10:32;;;;;;;5.50;3.27;;;;;;;7.06;46.88;96772.20;1819159;78;21551;-70
2021/04/09 09:13:09;;;;;;;5.03;3.33;;;;;;;7.24;47.82;96765.88;1819082;79;21146;-70
2021/04/09 09:15:52;;;;;;;4.53;3.53;;;;;;;7.48;46.79;96767.91;1819012;79;21522;-70
2021/04/09 09:18:25;;;;;;;3.30;2.98;;;;;;;7.65;46.78;96766.80;1819254;79;21115;-70
2021/04/09 09:21:18;;;;;;;4.75;3.05;;;;;;;7.50;46.43;96764.88;1819283;79;21099;-70
2021/04/09 09:23:51;;;;;;;4.30;2.80;;;;;;;7.67;44.99;96762.46;1820808;78;21122;-70
2021/04/09 09:26:42;;;;;;;3.60;2.90;;;;;;;7.82;45.66;96764.81;1828311;78;21134;-70
2021/04/09 09:29:26;;;;;;;3.17;2.87;;;;;;;8.01;44.47;96766.75;1828097;78;21691;-70
2021/04/09 09:32:08;;;;;;;6.73;3.47;;;;;;;8.21;44.69;96756.44;1828180;78;21142;-70
2021/04/09 09:34:41;;;;;;;3.03;2.50;;;;;;;8.32;40.66;96760.50;1827969;78;21087;-70
2021/04/09 09:37:30;;;;;;;4.53;2.87;;;;;;;8.26;42.68;96759.98;1827807;78;21517;-70
2021/04/09 09:40:05;;;;;;;4.37;3.03;;;;;;;8.43;42.75;96761.48;1828287;78;21284;-70
2021/04/09 09:42:43;;;;;;;4.53;3.30;;;;;;;8.60;44.01;96751.11;1828382;78;21276;-70
2021/04/09 09:45:34;;;;;;;4.43;3.13;;;;;;;8.58;42.65;96750.22;1828419;78;21264;-70
2021/04/09 09:48:16;;;;;;;4.10;3.00;;;;;;;8.50;41.93;96750.16;1769097;78;21173;-70
2021/04/09 09:50:44;;;;;;;3.33;2.90;;;;;;;8.53;44.33;96742.28;1828333;78;21525;-70
2021/04/09 09:53:12;;;;;;;3.17;2.47;;;;;;;8.64;44.37;96742.35;1828031;78;21091;-70
2021/04/09 09:55:44;;;;;;;5.43;3.20;;;;;;;8.64;44.46;96741.95;1828139;78;21593;-70
2021/04/09 09:58:19;;;;;;;3.97;2.80;;;;;;;8.78;40.93;96739.39;1828066;78;21146;-70
2021/04/09 10:00:59;;;;;;;4.37;3.37;;;;;;;8.76;43.23;96737.18;1828121;78;21683;-70
2021/04/09 10:03:37;;;;;;;3.10;2.50;;;;;;;8.99;41.03;96738.64;1827914;78;21117;-70
2021/04/09 10:06:13;;;;;;;3.27;2.03;;;;;;;9.22;43.25;96726.04;1828178;78;21159;-70
2021/04/09 10:08:44;;;;;;;4.40;2.80;;;;;;;9.37;40.78;96724.79;1824531;78;21146;-70
2021/04/09 10:11:21;;;;;;;4.80;3.40;;;;;;;9.57;41.10;96722.67;1828138;78;21233;-70
2021/04/09 10:13:50;;;;;;;4.63;3.07;;;;;;;9.85;39.98;96724.53;1828058;78;21125;-70
2021/04/09 10:16:21;;;;;;;3.57;2.53;;;;;;;9.74;36.12;96724.93;1828027;78;21130;-70
2021/04/09 10:18:54;;;;;;;5.00;3.00;;;;;;;9.14;37.96;96719.42;1827544;78;21818;-70
2021/04/09 10:21:31;;;;;;;3.43;2.70;;;;;;;8.96;38.48;96723.28;1828053;78;21083;-70
2021/04/09 10:24:12;;;;;;;2.97;2.60;;;;;;;9.31;40.82;96722.14;1826656;78;21233;-70
2021/04/09 10:26:58;;;;;;;4.17;2.90;;;;;;;9.64;40.27;96717.43;1819422;79;21092;-70
2021/04/09 10:29:37;;;;;;;2.63;2.30;;;;;;;9.87;37.77;96717.93;1819141;78;21127;-70
2021/04/09 10:32:16;;;;;;;3.03;2.63;;;;;;;9.44;37.33;96725.26;1819117;78;21533;-70
2021/04/09 10:34:48;;;;;;;4.30;2.80;;;;;;;9.74;37.25;96716.58;1818712;78;21099;-70
2021/04/09 10:37:26;;;;;;;3.03;2.57;;;;;;;10.04;39.29;96713.56;1819210;79;21272;-70
2021/04/09 10:39:53;;;;;;;4.07;3.20;;;;;;;10.50;41.25;96702.19;1818959;78;21165;-70
2021/04/09 10:42:22;;;;;;;3.20;2.77;;;;;;;10.92;42.15;96694.66;1819362;79;21127;-70
2021/04/09 10:44:49;;;;;;;4.10;2.00;;;;;;;11.18;38.51;96694.57;1819460;78;21146;-70
2021/04/09 10:47:18;;;;;;;5.60;4.40;;;;;;;11.34;39.13;96694.51;1819197;78;21123;-70
2021/04/09 10:49:46;;;;;;;3.70;3.30;;;;;;;11.34;35.79;96687.48;1819011;78;21596;-70
2021/04/09 10:52:17;;;;;;;3.80;2.57;;;;;;;11.25;34.38;96694.12;1819382;78;21127;-70
2021/04/09 10:54:47;;;;;;;3.80;3.07;;;;;;;11.02;36.26;96691.11;1819195;79;21135;-70
2021/04/09 10:57:20;;;;;;;6.00;4.08;;;;;;;11.31;38.30;96689.25;1818944;79;21597;-70
2021/04/09 10:59:51;;;;;;;3.87;2.90;;;;;;;11.43;34.69;96691.39;1818969;78;21143;-70
2021/04/09 11:02:22;;;;;;;7.73;3.20;;;;;;;11.43;34.28;96686.11;1819292;79;21127;-70
2021/04/09 11:04:57;;;;;;;4.43;3.00;;;;;;;11.51;33.67;96687.39;1818671;79;21605;-70
2021/04/09 11:07:48;;;;;;;4.70;3.30;;;;;;;11.44;37.77;96684.33;1819240;79;21119;-70
2021/04/09 11:10:30;;;;;;;6.23;3.70;;;;;;;11.23;33.93;96685.31;1815941;79;21560;-70
2021/04/09 11:12:59;;;;;;;4.37;3.73;;;;;;;10.71;34.13;96678.84;1816671;79;21549;-70
2021/04/09 11:15:39;;;;;;;3.60;3.30;;;;;;;10.34;35.73;96683.73;1819188;78;21134;-70
2021/04/09 11:18:07;;;;;;;3.13;2.63;;;;;;;10.10;35.53;96689.83;1819075;78;21080;-70
2021/04/09 11:20:39;;;;;;;4.37;2.90;;;;;;;9.81;36.38;96684.98;1819025;79;21580;-70
2021/04/09 11:23:14;;;;;;;4.30;3.10;;;;;;;9.71;37.99;96686.27;1818530;79;21553;-70
2021/04/09 11:25:45;;;;;;;3.50;3.10;;;;;;;9.69;39.45;96684.06;1801599;79;21149;-70
2021/04/09 11:28:29;;;;;;;4.67;3.20;;;;;;;9.84;35.23;96683.22;1795361;79;21121;-70
2021/04/09 11:31:04;;;;;;;2.67;2.30;;;;;;;9.99;35.72;96678.41;1795419;80;21140;-71
2021/04/09 11:33:41;;;;;;;3.50;3.20;;;;;;;10.39;35.42;96668.78;1795542;79;21132;-71
2021/04/09 11:36:21;;;;;;;4.60;3.07;;;;;;;10.33;34.22;96661.30;1795334;80;21115;-70
2021/04/09 11:38:53;;;;;;;3.80;3.00;;;;;;;9.95;37.03;96666.99;1795827;80;21144;-71
2021/04/09 11:41:30;;;;;;;4.70;3.10;;;;;;;10.14;37.10;96663.91;1793922;80;21707;-71
2021/04/09 11:43:59;;;;;;;2.83;2.40;;;;;;;10.78;37.68;96659.47;1795333;80;21127;-70
2021/04/09 11:46:36;;;;;;;4.30;2.80;;;;;;;11.65;35.44;96649.88;1795436;79;21135;-71
2021/04/09 11:49:07;;;;;;;3.60;2.60;;;;;;;12.32;36.35;96643.69;1795496;80;21143;-70
2021/04/09 11:51:37;;;;;;;3.85;3.00;;;;;;;12.28;32.00;96640.66;1795576;80;21112;-71